Time;durP1;ratioP1;P1;durP2;ratioP2;P2;SDS_P1;SDS_P2;PMS_P1;PMS_P2;Temp;Humidity;BMP_temperature;BMP_pressure;BME280_temperature;BME280_humidity;BME280_pressure;Samples;Min_cycle;Max_cycle;Signal;HPM_P1;HPM_P2
2022/09/21 00:02:08;;;;;;;11.18;2.90;;;5.50;99.90;;;;;;5016067;28;20107;-26
2022/09/21 00:04:34;;;;;;;78.90;5.78;;;5.50;99.90;;;;;;5034461;28;20373;-25
2022/09/21 00:07:00;;;;;;;18.55;3.25;;;5.60;99.90;;;;;;5033912;28;20048;-25
2022/09/21 00:09:25;;;;;;;13.90;3.85;;;5.50;99.90;;;;;;5034415;28;20087;-25
2022/09/21 00:11:51;;;;;;;19.42;4.20;;;5.50;99.90;;;;;;5033697;28;20085;-25
2022/09/21 00:14:18;;;;;;;43.08;5.90;;;5.50;99.90;;;;;;5033173;28;20045;-25
2022/09/21 00:16:44;;;;;;;5.80;3.67;;;5.40;99.90;;;;;;5032551;28;20049;-25
2022/09/21 00:19:10;;;;;;;5.68;3.70;;;5.30;99.90;;;;;;5033731;28;20569;-25
2022/09/21 00:21:37;;;;;;;7.22;3.95;;;5.30;99.90;;;;;;5033035;28;20045;-25
2022/09/21 00:24:04;;;;;;;4.65;3.28;;;5.50;99.90;;;;;;5033693;28;20099;-25
2022/09/21 00:26:30;;;;;;;8.40;3.70;;;5.50;99.90;;;;;;5034212;28;20494;-25
2022/09/21 00:28:59;;;;;;;11.43;3.85;;;5.40;99.90;;;;;;5033637;28;20041;-25
2022/09/21 00:31:26;;;;;;;6.05;4.28;;;5.40;99.90;;;;;;5032645;28;20053;-25
2022/09/21 00:33:53;;;;;;;7.97;4.25;;;5.40;99.90;;;;;;5033279;28;20580;-25
2022/09/21 00:36:23;;;;;;;12.07;4.60;;;5.40;99.90;;;;;;5032912;28;20049;-25
2022/09/21 00:38:51;;;;;;;14.77;6.50;;;5.30;99.90;;;;;;5033843;28;20388;-25
2022/09/21 00:41:17;;;;;;;8.52;4.95;;;5.50;99.90;;;;;;5033378;28;20049;-25
2022/09/21 00:44:21;;;;;;;17.20;5.20;;;5.50;99.90;;;;;;5033535;28;20046;-25
2022/09/21 00:46:49;;;;;;;6.82;4.18;;;5.30;99.90;;;;;;5009899;28;20049;-25
2022/09/21 00:49:16;;;;;;;6.05;4.32;;;5.50;99.90;;;;;;5033373;28;20494;-25
2022/09/21 00:51:42;;;;;;;5.53;4.47;;;5.40;99.90;;;;;;5034022;28;20115;-25
2022/09/21 00:54:14;;;;;;;15.55;5.93;;;5.30;99.90;;;;;;5033998;28;20045;-26
2022/09/21 00:56:46;;;;;;;11.43;7.57;;;5.20;99.90;;;;;;5033654;28;20091;-26
2022/09/21 00:59:14;;;;;;;9.63;7.05;;;5.30;99.90;;;;;;5033711;28;20049;-26
2022/09/21 01:01:41;;;;;;;9.30;4.63;;;5.40;99.90;;;;;;5033339;28;20522;-25
2022/09/21 01:04:08;;;;;;;10.85;7.30;;;5.10;99.90;;;;;;5033333;28;20049;-25
2022/09/21 01:06:37;;;;;;;8.27;4.85;;;5.30;99.90;;;;;;5032912;28;20057;-26
2022/09/21 01:09:03;;;;;;;7.57;5.22;;;5.30;99.90;;;;;;5033292;28;20049;-26
2022/09/21 01:12:02;;;;;;;8.70;5.97;;;5.30;99.90;;;;;;5032653;28;20077;-26
2022/09/21 01:14:50;;;;;;;7.68;5.80;;;5.00;99.90;;;;;;5034669;28;20049;-26
2022/09/21 01:17:40;;;;;;;10.23;8.18;;;5.20;99.90;;;;;;5037242;28;20400;-26
2022/09/21 01:20:31;;;;;;;11.88;8.38;;;5.00;99.90;;;;;;5037571;28;20056;-26
2022/09/21 01:23:06;;;;;;;11.63;8.45;;;5.20;99.90;;;;;;5035699;28;20180;-26
2022/09/21 01:26:00;;;;;;;14.27;9.48;;;5.00;99.90;;;;;;5019108;28;20068;-26
2022/09/21 01:29:02;;;;;;;28.10;14.48;;;5.20;99.90;;;;;;5028697;28;20041;-26
2022/09/21 01:31:45;;;;;;;15.95;11.48;;;5.20;99.90;;;;;;5036827;28;20053;-26
2022/09/21 01:34:23;;;;;;;17.00;10.73;;;5.20;99.90;;;;;;5036674;28;20440;-27
2022/09/21 01:36:52;;;;;;;21.00;13.07;;;5.20;99.90;;;;;;5036659;28;20042;-26
2022/09/21 01:39:20;;;;;;;17.02;12.63;;;5.10;99.90;;;;;;5036882;28;20116;-27
2022/09/21 01:41:49;;;;;;;37.45;14.25;;;5.00;99.90;;;;;;5036576;28;20049;-27
2022/09/21 01:44:22;;;;;;;23.23;14.75;;;5.00;99.90;;;;;;5035384;28;20126;-26
2022/09/21 01:46:49;;;;;;;17.20;10.00;;;5.20;99.90;;;;;;5036548;28;20046;-26
2022/09/21 01:49:27;;;;;;;19.85;12.77;;;5.30;99.90;;;;;;5035288;28;20280;-26
2022/09/21 01:52:19;;;;;;;24.35;15.98;;;5.30;99.90;;;;;;5036413;28;20586;-26
2022/09/21 01:55:09;;;;;;;19.85;12.30;;;5.30;99.90;;;;;;5036719;28;20064;-26
2022/09/21 01:57:53;;;;;;;19.73;12.70;;;5.20;99.90;;;;;;5036434;28;20045;-27
2022/09/21 02:00:19;;;;;;;;;;;5.30;99.90;;;;;;5036680;28;20106;-27
2022/09/21 02:03:03;;;;;;;29.63;16.90;;;5.40;99.90;;;;;;5037006;28;20019;-27
2022/09/21 02:05:30;;;;;;;31.05;17.10;;;5.10;99.90;;;;;;5036988;28;20049;-26
2022/09/21 02:07:58;;;;;;;25.10;15.68;;;5.30;99.90;;;;;;5034952;28;20041;-26
2022/09/21 02:10:41;;;;;;;30.95;18.40;;;5.20;99.90;;;;;;5036031;28;20064;-27
2022/09/21 02:13:08;;;;;;;28.60;16.57;;;5.10;99.90;;;;;;5036102;28;20128;-27
2022/09/21 02:16:14;;;;;;;20.75;13.10;;;5.30;99.90;;;;;;5035967;28;20056;-26
2022/09/21 02:19:09;;;;;;;20.08;12.45;;;5.30;99.90;;;;;;5035565;28;20504;-27
2022/09/21 02:21:35;;;;;;;21.40;13.15;;;5.30;99.90;;;;;;5035875;28;20045;-27
2022/09/21 02:24:23;;;;;;;23.30;13.40;;;5.30;99.90;;;;;;5035815;28;20115;-27
2022/09/21 02:27:05;;;;;;;21.63;14.00;;;5.30;99.90;;;;;;5036084;28;20049;-27
2022/09/21 02:29:51;;;;;;;22.67;13.85;;;5.20;99.90;;;;;;5034494;28;20050;-28
2022/09/21 02:32:47;;;;;;;22.67;13.85;;;5.30;99.90;;;;;;5034458;28;20053;-28
2022/09/21 02:35:37;;;;;;;17.70;12.60;;;5.20;99.90;;;;;;5027904;28;20486;-27
2022/09/21 02:38:08;;;;;;;21.38;12.82;;;5.30;99.90;;;;;;5035482;28;20038;-27
2022/09/21 02:40:43;;;;;;;27.67;13.57;;;5.30;99.90;;;;;;5034516;28;20664;-27
2022/09/21 02:43:22;;;;;;;18.35;12.27;;;5.10;99.90;;;;;;5035494;28;20088;-27
2022/09/21 02:46:05;;;;;;;18.35;12.32;;;5.40;99.90;;;;;;5035807;28;20395;-27
2022/09/21 02:48:48;;;;;;;20.73;12.65;;;5.20;99.90;;;;;;5035836;28;20077;-27
2022/09/21 02:51:21;;;;;;;20.88;11.50;;;5.30;99.90;;;;;;5035442;28;20056;-27
2022/09/21 02:53:51;;;;;;;20.35;12.18;;;5.20;99.90;;;;;;5034120;28;20045;-27
2022/09/21 02:56:17;;;;;;;17.77;11.27;;;5.30;99.90;;;;;;5035181;28;20049;-27
2022/09/21 02:58:48;;;;;;;20.25;11.98;;;5.30;99.90;;;;;;5035197;28;20120;-27
2022/09/21 03:01:15;;;;;;;19.10;11.07;;;5.30;99.90;;;;;;5035729;28;20053;-27
2022/09/21 03:03:41;;;;;;;18.85;12.07;;;5.10;99.90;;;;;;5035068;28;20128;-27
2022/09/21 03:06:07;;;;;;;19.63;10.82;;;5.30;99.90;;;;;;5034990;28;20132;-28
2022/09/21 03:08:33;;;;;;;21.55;13.88;;;5.20;99.90;;;;;;5035038;28;20049;-27
2022/09/21 03:10:58;;;;;;;24.42;15.60;;;5.00;99.90;;;;;;5017436;28;20100;-27
2022/09/21 03:13:24;;;;;;;18.63;12.10;;;5.10;99.90;;;;;;5001198;28;20055;-27
2022/09/21 03:15:59;;;;;;;26.08;14.38;;;5.00;99.90;;;;;;5035092;28;20387;-28
2022/09/21 03:18:24;;;;;;;18.88;13.73;;;5.10;99.90;;;;;;5035584;28;20092;-28
2022/09/21 03:20:50;;;;;;;19.73;12.82;;;5.00;99.90;;;;;;5034715;28;20049;-28
2022/09/21 03:23:16;;;;;;;20.30;12.93;;;5.10;99.90;;;;;;5033508;28;20052;-27
2022/09/21 03:25:45;;;;;;;18.13;13.40;;;4.90;99.90;;;;;;5033423;28;20037;-28
2022/09/21 03:28:12;;;;;;;24.02;14.32;;;5.10;99.90;;;;;;5034577;28;20037;-27
2022/09/21 03:30:38;;;;;;;17.63;11.65;;;5.10;99.90;;;;;;5034557;28;20168;-28
2022/09/21 03:33:05;;;;;;;20.48;12.07;;;5.00;99.90;;;;;;5034507;28;20055;-28
2022/09/21 03:35:32;;;;;;;19.67;14.30;;;4.80;99.90;;;;;;5034458;28;20057;-28
2022/09/21 03:37:59;;;;;;;15.25;10.52;;;4.80;99.90;;;;;;5033666;28;20128;-28
2022/09/21 03:40:27;;;;;;;18.92;13.38;;;5.00;99.90;;;;;;5034361;28;20041;-27
2022/09/21 03:42:54;;;;;;;17.35;11.85;;;5.00;99.90;;;;;;5033174;28;20060;-28
2022/09/21 03:45:20;;;;;;;18.52;12.27;;;5.00;99.90;;;;;;5034749;28;20136;-28
2022/09/21 03:47:47;;;;;;;18.35;13.13;;;5.20;99.90;;;;;;5034194;28;20129;-28
2022/09/21 03:50:14;;;;;;;20.48;14.10;;;5.10;99.90;;;;;;5034122;28;20049;-29
2022/09/21 03:52:40;;;;;;;19.08;13.50;;;5.20;99.90;;;;;;5033205;28;20041;-28
2022/09/21 03:55:08;;;;;;;23.35;11.50;;;5.10;99.90;;;;;;5034110;28;20106;-29
2022/09/21 03:57:35;;;;;;;20.40;12.60;;;5.10;99.90;;;;;;5034848;28;20046;-29
2022/09/21 04:00:02;;;;;;;25.37;15.50;;;5.30;99.90;;;;;;5016610;28;20069;-28
2022/09/21 04:02:28;;;;;;;21.70;14.07;;;5.20;99.90;;;;;;5034242;28;20042;-29
2022/09/21 04:04:54;;;;;;;20.33;13.07;;;5.50;99.90;;;;;;5033995;28;20118;-29
2022/09/21 04:07:20;;;;;;;20.55;12.60;;;5.30;99.90;;;;;;5033952;28;20491;-29
2022/09/21 04:09:46;;;;;;;20.77;12.02;;;5.20;99.90;;;;;;5033899;28;20056;-29
2022/09/21 04:12:12;;;;;;;21.55;11.60;;;5.40;99.90;;;;;;5033858;28;20049;-29
2022/09/21 04:14:37;;;;;;;22.87;11.07;;;5.40;99.90;;;;;;5032925;28;20052;-29
2022/09/21 04:17:04;;;;;;;24.88;15.35;;;5.50;99.90;;;;;;5033742;28;20476;-29
2022/09/21 04:19:29;;;;;;;27.65;14.38;;;5.30;99.90;;;;;;5032584;28;20056;-29
2022/09/21 04:21:55;;;;;;;27.40;14.57;;;5.50;99.90;;;;;;5033983;28;20046;-29
2022/09/21 04:24:21;;;;;;;28.02;14.25;;;5.20;99.90;;;;;;5032759;28;20132;-29
2022/09/21 04:26:47;;;;;;;28.90;14.70;;;5.50;99.90;;;;;;5033681;28;20042;-29
2022/09/21 04:29:15;;;;;;;32.17;15.63;;;5.30;99.90;;;;;;5033709;28;20052;-30
2022/09/21 04:31:41;;;;;;;25.63;13.63;;;5.30;99.90;;;;;;5033633;28;20128;-28
2022/09/21 04:34:10;;;;;;;26.40;13.70;;;5.40;99.90;;;;;;5033662;28;20080;-29
2022/09/21 04:36:36;;;;;;;26.00;16.23;;;5.10;99.90;;;;;;5033849;28;20095;-29
2022/09/21 04:39:03;;;;;;;27.20;14.35;;;5.40;99.90;;;;;;5033616;28;20041;-29
2022/09/21 04:41:29;;;;;;;33.13;16.15;;;5.00;99.90;;;;;;5033562;28;20045;-29
2022/09/21 04:43:54;;;;;;;34.28;18.17;;;5.10;99.90;;;;;;5033566;28;20053;-29
2022/09/21 04:46:21;;;;;;;20.73;12.27;;;5.00;99.90;;;;;;5034728;28;20084;-29
2022/09/21 04:48:47;;;;;;;22.52;12.55;;;5.20;99.90;;;;;;5033941;28;20056;-30
2022/09/21 04:51:15;;;;;;;21.35;11.30;;;5.00;99.90;;;;;;5037567;28;20045;-30
2022/09/21 04:53:42;;;;;;;12.88;8.57;;;4.70;99.90;;;;;;5004199;28;20170;-29
2022/09/21 04:56:11;;;;;;;11.32;7.80;;;4.80;99.90;;;;;;5036285;28;20041;-29
2022/09/21 04:58:37;;;;;;;9.88;6.20;;;4.80;99.90;;;;;;5037326;28;20049;-30
2022/09/21 05:01:05;;;;;;;17.70;9.13;;;4.40;99.90;;;;;;5038130;28;20099;-29
2022/09/21 05:03:31;;;;;;;19.55;8.88;;;4.50;99.90;;;;;;5037278;28;20056;-31
2022/09/21 05:05:57;;;;;;;100.00;13.07;;;4.60;99.90;;;;;;5037794;28;20049;-29
2022/09/21 05:11:14;;;;;;;16.40;10.98;;;4.60;99.90;;;;;;5037512;28;20132;-29
2022/09/21 05:13:41;;;;;;;33.22;11.38;;;4.40;99.90;;;;;;5019154;28;20064;-30
2022/09/21 05:16:08;;;;;;;25.45;11.40;;;4.40;99.90;;;;;;5037604;28;20046;-30
2022/09/21 05:18:34;;;;;;;28.48;12.00;;;4.20;99.90;;;;;;5036924;28;20048;-30
2022/09/21 05:21:01;;;;;;;13.38;10.43;;;4.30;99.90;;;;;;5037244;28;20045;-30
2022/09/21 05:23:30;;;;;;;20.95;11.13;;;4.50;99.90;;;;;;5036922;28;20041;-31
2022/09/21 05:25:57;;;;;;;25.50;9.97;;;4.40;99.90;;;;;;5036853;28;20095;-30
2022/09/21 05:28:23;;;;;;;32.15;11.00;;;4.40;99.90;;;;;;5036869;28;20067;-31
2022/09/21 05:31:18;;;;;;;52.30;12.27;;;4.40;99.90;;;;;;5037420;28;20137;-31
2022/09/21 05:34:08;;;;;;;24.88;9.25;;;4.50;99.90;;;;;;5036732;28;20049;-32
2022/09/21 05:36:49;;;;;;;103.32;22.02;;;4.60;99.90;;;;;;5036974;28;20045;-31
2022/09/21 05:39:15;;;;;;;44.65;18.40;;;4.40;99.90;;;;;;5038055;28;20071;-32
2022/09/21 05:41:41;;;;;;;88.90;22.77;;;4.30;99.90;;;;;;5036639;28;20041;-31
2022/09/21 05:44:13;;;;;;;13.18;9.68;;;4.40;99.90;;;;;;5035276;28;20076;-30
2022/09/21 05:46:44;;;;;;;9.23;8.23;;;4.60;99.90;;;;;;5036594;28;20060;-31
2022/09/21 05:49:21;;;;;;;16.05;12.23;;;4.20;99.90;;;;;;5036435;28;20096;-31
2022/09/21 05:52:08;;;;;;;10.70;8.90;;;4.60;99.90;;;;;;5036667;28;20051;-31
2022/09/21 05:54:42;;;;;;;23.37;17.10;;;4.60;99.90;;;;;;5036409;28;20053;-31
2022/09/21 05:57:14;;;;;;;24.23;16.92;;;4.30;99.90;;;;;;5036324;28;20475;-31
2022/09/21 05:59:52;;;;;;;28.67;19.50;;;4.70;99.90;;;;;;5035725;28;20045;-31
2022/09/21 06:02:49;;;;;;;13.65;11.75;;;4.50;99.90;;;;;;5036833;28;20280;-31
2022/09/21 06:05:15;;;;;;;15.02;13.38;;;4.50;99.90;;;;;;5036466;28;20505;-31
2022/09/21 06:07:41;;;;;;;14.40;12.43;;;4.80;99.90;;;;;;5036143;28;20045;-31
2022/09/21 06:10:08;;;;;;;17.00;12.93;;;4.90;99.90;;;;;;5036086;28;20415;-32
2022/09/21 06:12:34;;;;;;;13.32;11.80;;;5.00;99.90;;;;;;5036318;28;20052;-31
2022/09/21 06:15:00;;;;;;;18.35;14.70;;;4.90;99.90;;;;;;5034784;28;20136;-32
2022/09/21 06:17:26;;;;;;;19.58;15.73;;;5.20;99.90;;;;;;5034702;28;20049;-32
2022/09/21 06:19:55;;;;;;;28.17;20.38;;;5.10;99.90;;;;;;5035879;28;20558;-32
2022/09/21 06:22:20;;;;;;;28.33;20.48;;;5.20;99.90;;;;;;5035875;28;20152;-32
2022/09/21 06:24:46;;;;;;;35.40;21.80;;;5.50;99.90;;;;;;5036131;28;20491;-32
2022/09/21 06:27:12;;;;;;;30.23;22.08;;;5.40;99.90;;;;;;5035836;28;20438;-33
2022/09/21 06:29:37;;;;;;;30.00;21.63;;;5.80;99.90;;;;;;5035332;28;20038;-32
2022/09/21 06:32:04;;;;;;;22.70;17.17;;;5.70;99.90;;;;;;5036263;28;20103;-32
2022/09/21 06:34:30;;;;;;;31.95;22.13;;;6.00;99.90;;;;;;5035605;28;20045;-32
2022/09/21 06:36:56;;;;;;;30.00;20.25;;;5.90;99.90;;;;;;5036072;28;20052;-32
2022/09/21 06:39:22;;;;;;;33.60;21.30;;;5.90;99.90;;;;;;5035517;28;20041;-32
2022/09/21 06:41:47;;;;;;;31.77;19.75;;;6.30;99.90;;;;;;5034374;28;20056;-32
2022/09/21 06:44:13;;;;;;;24.77;18.63;;;6.40;99.90;;;;;;5034951;28;20103;-32
2022/09/21 06:46:39;;;;;;;32.15;20.40;;;6.00;99.90;;;;;;5036325;28;20129;-32
2022/09/21 06:49:05;;;;;;;29.48;20.25;;;6.30;99.90;;;;;;5034000;28;20480;-32
2022/09/21 06:51:30;;;;;;;28.88;20.70;;;6.80;99.90;;;;;;5034183;28;20049;-32
2022/09/21 06:53:57;;;;;;;33.70;22.23;;;6.90;99.90;;;;;;5034294;28;20049;-34
2022/09/21 06:56:24;;;;;;;38.25;23.73;;;6.70;99.90;;;;;;5035271;28;20084;-33
2022/09/21 06:58:51;;;;;;;32.00;22.10;;;7.00;99.90;;;;;;5034706;28;20126;-33
2022/09/21 07:01:18;;;;;;;30.13;20.23;;;6.80;99.90;;;;;;5034140;28;20045;-33
2022/09/21 07:03:47;;;;;;;29.23;19.58;;;7.00;99.90;;;;;;5035087;28;20045;-34
2022/09/21 07:06:14;;;;;;;30.13;19.50;;;7.40;99.90;;;;;;5035017;28;20048;-33
2022/09/21 07:08:44;;;;;;;30.60;20.90;;;7.60;99.90;;;;;;5035533;28;20056;-34
2022/09/21 07:11:11;;;;;;;23.73;16.20;;;7.30;99.90;;;;;;5034325;28;20416;-33
2022/09/21 07:13:37;;;;;;;28.00;19.08;;;7.90;99.90;;;;;;5034247;28;20049;-33
2022/09/21 07:16:08;;;;;;;26.20;18.40;;;8.00;99.90;;;;;;5034864;28;20124;-34
2022/09/21 07:18:34;;;;;;;31.05;18.63;;;8.20;99.90;;;;;;5033456;28;20484;-34
2022/09/21 07:21:08;;;;;;;24.58;16.17;;;8.40;99.90;;;;;;5035293;28;20099;-34
2022/09/21 07:23:35;;;;;;;25.17;17.90;;;8.50;99.90;;;;;;5035341;28;20049;-34
2022/09/21 07:26:06;;;;;;;21.48;15.88;;;8.70;99.90;;;;;;5034963;28;20136;-33
2022/09/21 07:28:31;;;;;;;30.15;17.88;;;8.80;99.90;;;;;;5034612;28;20052;-34
2022/09/21 07:30:58;;;;;;;26.55;15.45;;;8.80;99.90;;;;;;5034057;28;20053;-35
2022/09/21 07:33:32;;;;;;;21.90;13.27;;;9.30;99.90;;;;;;5091894;28;20494;-35
2022/09/21 07:35:59;;;;;;;23.80;12.32;;;9.30;99.90;;;;;;5091239;28;20147;-34
2022/09/21 07:38:26;;;;;;;19.27;10.50;;;9.40;99.90;;;;;;5091237;28;20044;-36
2022/09/21 07:40:52;;;;;;;20.75;12.15;;;9.80;99.90;;;;;;5091150;28;20044;-38
2022/09/21 07:43:18;;;;;;;17.20;8.98;;;9.70;99.90;;;;;;5091082;28;20040;-36
2022/09/21 07:45:54;;;;;;;13.38;6.90;;;10.10;99.90;;;;;;5090045;28;20041;-36
2022/09/21 07:48:21;;;;;;;14.10;8.70;;;10.30;99.90;;;;;;5089995;28;20056;-38
2022/09/21 07:50:48;;;;;;;17.92;8.20;;;10.00;99.90;;;;;;5091496;28;20110;-38
2022/09/21 07:53:16;;;;;;;13.18;8.10;;;10.60;99.90;;;;;;5091401;28;20048;-38
2022/09/21 07:55:42;;;;;;;15.07;8.90;;;10.30;99.90;;;;;;5073120;28;20044;-39
2022/09/21 08:00:52;;;;;;;14.05;6.13;;;10.60;99.90;;;;;;5090829;28;20055;-39
2022/09/21 08:03:17;;;;;;;13.85;5.18;;;11.00;99.90;;;;;;5090708;28;20037;-39
2022/09/21 08:05:43;;;;;;;12.27;5.20;;;11.40;99.90;;;;;;5089473;28;20048;-39
2022/09/21 08:08:09;;;;;;;14.60;4.70;;;11.50;99.90;;;;;;5089427;28;20097;-40
2022/09/21 08:10:36;;;;;;;9.23;4.10;;;11.40;99.90;;;;;;5090581;28;20138;-40
2022/09/21 08:13:02;;;;;;;14.32;4.82;;;11.50;99.90;;;;;;5089295;28;20105;-40
2022/09/21 08:15:27;;;;;;;12.68;3.72;;;11.50;99.90;;;;;;5091027;28;20059;-40
2022/09/21 08:17:53;;;;;;;11.25;2.70;;;11.70;99.90;;;;;;5091086;28;20036;-39
2022/09/21 08:20:20;;;;;;;12.23;3.00;;;11.90;99.90;;;;;;5089220;28;20044;-40
2022/09/21 08:22:46;;;;;;;7.25;2.38;;;11.90;99.90;;;;;;5090224;28;20060;-40
2022/09/21 08:25:12;;;;;;;11.90;2.20;;;12.20;99.90;;;;;;5090324;28;20044;-40
2022/09/21 08:27:39;;;;;;;9.82;2.08;;;12.30;99.90;;;;;;5089649;28;20387;-39
2022/09/21 08:30:06;;;;;;;5.88;1.92;;;12.50;99.90;;;;;;5090066;28;20093;-39
2022/09/21 08:32:32;;;;;;;10.43;1.80;;;12.50;99.90;;;;;;5090227;28;20060;-40
2022/09/21 08:34:58;;;;;;;7.85;1.80;;;12.70;99.90;;;;;;5090686;28;20044;-38
2022/09/21 08:37:24;;;;;;;6.93;1.27;;;12.80;99.90;;;;;;5090088;28;20102;-39
2022/09/21 08:39:49;;;;;;;9.73;1.80;;;12.90;99.90;;;;;;5090565;28;20047;-38
2022/09/21 08:42:40;;;;;;;6.85;1.52;;;13.10;99.90;;;;;;5088775;28;20428;-38
2022/09/21 08:45:17;;;;;;;8.35;1.10;;;13.30;99.90;;;;;;5076281;28;20040;-38
2022/09/21 08:47:51;;;;;;;6.72;1.20;;;13.50;99.90;;;;;;5076463;28;20048;-35
2022/09/21 08:50:43;;;;;;;7.50;1.10;;;13.60;99.90;;;;;;5076884;28;20128;-34
2022/09/21 08:53:26;;;;;;;8.18;0.80;;;13.80;1.00;;;;;;5076566;28;20044;-34
2022/09/21 08:55:58;;;;;;;4.45;0.98;;;13.90;99.90;;;;;;5076317;28;20052;-34
2022/09/21 08:58:30;;;;;;;5.75;0.98;;;14.00;99.90;;;;;;5075550;28;20043;-35
2022/09/21 09:01:14;;;;;;;6.05;1.00;;;14.10;99.90;;;;;;5075475;28;20048;-33
2022/09/21 09:03:58;;;;;;;6.82;1.05;;;14.20;99.90;;;;;;5075404;28;20052;-32
2022/09/21 09:06:47;;;;;;;5.32;1.10;;;14.30;21.40;;;;;;5075962;28;20078;-33
2022/09/21 09:09:47;;;;;;;10.98;1.70;;;14.80;99.90;;;;;;5075360;28;20059;-33
2022/09/21 09:12:23;;;;;;;7.20;1.20;;;16.00;99.90;;;;;;5075895;28;20052;-35
2022/09/21 09:15:29;;;;;;;9.15;1.45;;;17.00;60.70;;;;;;5076526;28;20052;-35
2022/09/21 09:18:00;;;;;;;5.30;1.20;;;17.70;99.90;;;;;;5076436;28;20071;-35
2022/09/21 09:20:43;;;;;;;13.25;1.85;;;18.30;99.90;;;;;;5075486;28;20109;-33
2022/09/21 09:23:40;;;;;;;5.22;1.35;;;18.40;99.90;;;;;;5076384;28;20049;-33
2022/09/21 09:26:19;;;;;;;3.58;0.93;;;18.90;99.90;;;;;;5072433;28;20052;-33
2022/09/21 09:28:50;;;;;;;7.85;1.10;;;19.50;99.90;;;;;;5076263;28;20048;-33
2022/09/21 09:31:35;;;;;;;5.78;1.10;;;20.20;96.40;;;;;;5075808;28;20448;-34
2022/09/21 09:34:01;;;;;;;8.57;0.90;;;20.20;99.90;;;;;;5076088;28;20459;-33
2022/09/21 09:36:31;;;;;;;9.40;1.10;;;20.20;1.00;;;;;;5075448;28;20047;-33
2022/09/21 09:39:01;;;;;;;7.00;0.95;;;20.00;99.90;;;;;;5075491;28;20048;-33
2022/09/21 09:41:49;;;;;;;6.00;0.88;;;20.20;99.90;;;;;;5076193;28;20044;-33
2022/09/21 09:44:30;;;;;;;5.55;1.00;;;20.60;99.90;;;;;;5057404;28;20060;-33
2022/09/21 09:47:18;;;;;;;3.72;0.93;;;21.00;99.90;;;;;;5075588;28;20048;-33
2022/09/21 09:49:44;;;;;;;4.32;0.90;;;;;;;;;;5075143;28;20106;-32
2022/09/21 09:52:13;;;;;;;5.97;0.82;;;22.30;99.90;;;;;;5075091;28;20123;-33
2022/09/21 09:54:39;;;;;;;4.63;0.80;;;22.60;99.90;;;;;;5074533;28;20044;-32
2022/09/21 09:57:06;;;;;;;5.57;0.95;;;22.00;99.90;;;;;;5073421;28;20106;-33
2022/09/21 09:59:50;;;;;;;7.70;0.88;;;21.60;99.90;;;;;;5075102;28;20071;-32
2022/09/21 10:02:23;;;;;;;2.20;0.40;;;21.10;99.90;;;;;;5076132;28;20044;-32
2022/09/21 10:05:05;;;;;;;;;;;20.70;1.00;;;;;;5075391;28;20386;-32
2022/09/21 10:07:37;;;;;;;5.70;0.60;;;20.40;1.00;;;;;;5075467;28;20295;-32
2022/09/21 10:10:27;;;;;;;5.43;0.82;;;20.90;65.40;;;;;;5056964;28;20456;-32
2022/09/21 10:12:54;;;;;;;9.77;0.88;;;21.70;1.00;;;;;;5073556;28;20051;-32
2022/09/21 10:15:22;;;;;;;4.65;1.05;;;21.90;1.00;;;;;;5074721;28;20048;-32
2022/09/21 10:18:13;;;;;;;6.32;0.85;;;22.20;1.00;;;;;;5075167;28;20044;-32
2022/09/21 10:20:51;;;;;;;4.40;0.73;;;22.20;1.00;;;;;;5074940;28;20049;-32
2022/09/21 10:23:18;;;;;;;4.53;0.80;;;22.10;1.00;;;;;;5075121;28;20044;-32
2022/09/21 10:25:43;;;;;;;5.22;0.80;;;22.40;1.00;;;;;;5075307;28;20109;-32
2022/09/21 10:28:12;;;;;;;8.77;1.13;;;22.70;1.00;;;;;;5073248;28;20052;-31
2022/09/21 10:30:38;;;;;;;2.63;0.40;;;22.90;99.90;;;;;;5073777;28;20048;-32
2022/09/21 10:33:20;;;;;;;5.90;1.10;;;23.10;1.00;;;;;;5074849;28;20105;-31
2022/09/21 10:35:51;;;;;;;6.30;0.70;;;23.30;94.90;;;;;;5073250;28;20131;-31
2022/09/21 10:38:19;;;;;;;5.82;0.90;;;23.00;54.90;;;;;;5073240;28;20552;-31
2022/09/21 10:40:46;;;;;;;6.03;0.82;;;22.50;20.40;;;;;;5074732;28;20135;-31
2022/09/21 10:43:41;;;;;;;4.88;1.05;;;22.20;92.20;;;;;;5074419;28;20431;-31
2022/09/21 10:46:07;;;;;;;3.55;0.65;;;22.20;23.30;;;;;;5074227;28;20045;-31
2022/09/21 10:48:33;;;;;;;4.88;0.82;;;22.30;1.00;;;;;;5074080;28;20056;-31
2022/09/21 10:50:59;;;;;;;4.15;0.73;;;22.20;1.00;;;;;;5072640;28;20517;-30
2022/09/21 10:53:35;;;;;;;7.65;1.05;;;22.70;1.00;;;;;;5073973;28;20041;-32
2022/09/21 10:56:03;;;;;;;7.35;0.80;;;23.20;41.00;;;;;;5074884;28;20047;-30
2022/09/21 10:58:29;;;;;;;6.22;0.80;;;23.70;99.90;;;;;;5073978;28;20055;-30
2022/09/21 11:01:10;;;;;;;4.32;0.50;;;24.30;1.00;;;;;;5073602;28;20391;-31
2022/09/21 11:03:54;;;;;;;4.53;0.90;;;24.50;8.70;;;;;;5073903;28;20608;-31
2022/09/21 11:06:26;;;;;;;4.95;0.77;;;24.00;1.00;;;;;;5073639;28;20048;-30
2022/09/21 11:09:18;;;;;;;3.17;0.70;;;23.50;1.00;;;;;;5072694;28;20048;-30
2022/09/21 11:11:57;;;;;;;5.10;0.95;;;23.00;1.00;;;;;;5064910;28;20055;-30
2022/09/21 11:14:35;;;;;;;5.63;0.60;;;22.40;1.00;;;;;;5074373;28;20131;-30
2022/09/21 11:17:16;;;;;;;4.70;1.00;;;21.60;1.00;;;;;;5074093;28;20052;-29
2022/09/21 11:19:56;;;;;;;3.42;0.93;;;21.00;1.00;;;;;;5073772;28;20550;-30
2022/09/21 11:22:36;;;;;;;5.90;1.10;;;20.40;1.00;;;;;;5074023;28;20114;-29
2022/09/21 11:25:35;;;;;;;6.95;0.90;;;20.10;1.00;;;;;;5073702;28;20095;-30
2022/09/21 11:28:27;;;;;;;4.28;0.80;;;20.80;1.00;;;;;;5073373;28;20495;-30
2022/09/21 11:31:16;;;;;;;3.65;0.68;;;22.10;1.00;;;;;;5063567;28;20573;-30
2022/09/21 11:34:13;;;;;;;2.67;0.70;;;23.20;1.00;;;;;;5074158;28;20091;-29
2022/09/21 11:37:15;;;;;;;5.93;0.60;;;23.80;1.00;;;;;;5073523;28;20052;-29
2022/09/21 11:39:58;;;;;;;5.30;0.70;;;23.90;1.00;;;;;;5073213;28;20380;-29
2022/09/21 11:42:54;;;;;;;2.45;0.70;;;23.80;1.00;;;;;;5073517;28;20490;-29
2022/09/21 11:45:49;;;;;;;4.00;0.73;;;23.30;1.00;;;;;;5074064;28;20403;-30
2022/09/21 11:48:36;;;;;;;3.58;0.60;;;23.30;1.00;;;;;;5072289;28;20048;-28
2022/09/21 11:51:37;;;;;;;6.13;1.05;;;22.70;1.00;;;;;;5073311;28;20052;-29
2022/09/21 11:54:14;;;;;;;4.53;0.77;;;21.80;1.00;;;;;;5073442;28;20054;-29
2022/09/21 11:57:01;;;;;;;4.60;0.82;;;20.70;1.00;;;;;;5073379;28;20492;-29
2022/09/21 11:59:41;;;;;;;3.90;0.55;;;19.70;1.00;;;;;;5072770;28;20135;-28
2022/09/21 12:02:19;;;;;;;5.60;0.82;;;19.10;1.00;;;;;;5073373;28;20047;-28
2022/09/21 12:04:54;;;;;;;3.60;0.43;;;18.70;1.00;;;;;;5072118;28;20052;-28
2022/09/21 12:07:47;;;;;;;2.78;0.40;;;18.30;1.00;;;;;;5072572;28;20064;-28
2022/09/21 12:10:23;;;;;;;5.80;0.67;;;18.00;1.00;;;;;;5073295;28;20048;-28
2022/09/21 12:12:59;;;;;;;4.00;0.50;;;17.90;1.00;;;;;;5073170;28;20051;-28
2022/09/21 12:15:53;;;;;;;8.35;0.73;;;17.80;1.00;;;;;;5074001;28;20036;-28
2022/09/21 12:18:20;;;;;;;4.38;0.60;;;17.70;1.00;;;;;;5073444;28;20430;-29
2022/09/21 12:20:48;;;;;;;2.83;0.35;;;17.60;8.70;;;;;;5076843;28;20051;-28
2022/09/21 12:23:25;;;;;;;2.25;0.47;;;17.70;1.00;;;;;;5077066;28;20082;-30
2022/09/21 12:25:56;;;;;;;3.33;0.52;;;18.50;23.60;;;;;;5077408;28;20044;-29
2022/09/21 12:28:36;;;;;;;5.35;0.50;;;19.90;24.60;;;;;;5076706;28;20068;-29
2022/09/21 12:31:31;;;;;;;5.40;0.77;;;21.00;1.00;;;;;;5077586;28;20047;-29
2022/09/21 12:34:04;;;;;;;5.65;0.50;;;21.90;1.00;;;;;;5066350;28;20044;-29
2022/09/21 12:36:39;;;;;;;;;;;22.40;12.90;;;;;;5077041;28;20457;-29
2022/09/21 12:39:12;;;;;;;2.50;0.68;;;22.70;5.80;;;;;;5076478;28;19926;-30
2022/09/21 12:42:01;;;;;;;3.03;0.60;;;23.20;26.50;;;;;;5076842;28;20040;-29
2022/09/21 12:44:50;;;;;;;4.97;1.13;;;23.60;34.30;;;;;;5076455;28;20041;-29
2022/09/21 12:47:26;;;;;;;3.83;0.60;;;24.00;74.00;;;;;;5077311;28;20041;-29
2022/09/21 12:49:58;;;;;;;5.22;0.88;;;24.20;92.50;;;;;;5076880;28;20041;-29
2022/09/21 12:52:26;;;;;;;3.13;0.70;;;24.50;94.80;;;;;;5076335;28;20044;-29
2022/09/21 12:55:31;;;;;;;2.15;0.40;;;24.70;99.90;;;;;;5075976;28;20509;-29
2022/09/21 12:58:07;;;;;;;5.75;0.73;;;24.10;68.70;;;;;;5076856;28;20088;-28
2022/09/21 13:01:07;;;;;;;2.95;0.50;;;23.60;61.90;;;;;;5075570;28;20048;-29
2022/09/21 13:03:42;;;;;;;4.22;1.13;;;23.40;61.60;;;;;;5076157;28;20139;-28
2022/09/21 13:06:34;;;;;;;4.93;0.63;;;23.80;99.90;;;;;;5076727;28;20050;-29
2022/09/21 13:09:02;;;;;;;7.65;0.60;;;24.20;97.10;;;;;;5076629;28;20055;-29
2022/09/21 13:11:33;;;;;;;3.83;0.80;;;24.40;99.90;;;;;;5075923;28;20048;-29
2022/09/21 13:14:02;;;;;;;2.65;0.55;;;24.80;99.90;;;;;;5075602;28;20139;-29
2022/09/21 13:16:31;;;;;;;2.30;0.60;;;24.90;99.90;;;;;;5075855;28;20482;-28
2022/09/21 13:19:03;;;;;;;8.05;1.10;;;25.10;99.90;;;;;;5075822;28;20080;-29
2022/09/21 13:21:30;;;;;;;2.60;0.50;;;25.50;99.90;;;;;;5075868;28;20052;-29
2022/09/21 13:24:04;;;;;;;2.58;0.50;;;25.70;99.90;;;;;;5076308;28;20049;-29